createdAt,value
2022-09-03T00:04:29.959Z,99280.94
2022-09-03T00:09:41.538Z,99271.88
2022-09-03T00:14:51.380Z,99261.91
2022-09-03T00:20:00.047Z,99266.84
2022-09-03T00:25:07.085Z,99249.06
2022-09-03T00:30:13.847Z,99246.31
2022-09-03T00:35:26.358Z,99247.69
2022-09-03T00:41:01.839Z,99247.47
2022-09-03T00:46:18.336Z,99243.34
2022-09-03T00:51:34.839Z,99241.38
2022-09-03T00:56:47.527Z,99250.66
2022-09-03T01:02:02.321Z,99240.44
2022-09-03T01:07:16.023Z,99241.09
2022-09-03T01:12:30.291Z,99246.03
2022-09-03T01:17:46.440Z,99245.22
2022-09-03T01:23:36.010Z,99245.31
2022-09-03T01:28:56.636Z,99240.59
2022-09-03T01:34:11.518Z,99246.63
2022-09-03T01:39:24.652Z,99254.56
2022-09-03T01:44:39.520Z,99253.16
2022-09-03T01:49:50.065Z,99259.25
2022-09-03T01:55:07.197Z,99256.72
2022-09-03T02:00:13.929Z,99249.47
2022-09-03T02:05:19.472Z,99252.69
2022-09-03T02:10:30.271Z,99249.28
2022-09-03T02:15:37.529Z,99249.47
2022-09-03T02:20:41.006Z,99251.09
2022-09-03T02:25:49.228Z,99248.75
2022-09-03T02:30:53.754Z,99252.84
2022-09-03T02:35:56.971Z,99259.25
2022-09-03T02:40:59.961Z,99259.13
2022-09-03T02:46:08.085Z,99249.38
2022-09-03T02:51:14.085Z,99260.06
2022-09-03T02:56:17.512Z,99259.69
2022-09-03T03:01:24.079Z,99252.91
2022-09-03T03:06:27.540Z,99254.97
2022-09-03T03:11:30.614Z,99240.47
2022-09-03T03:16:35.002Z,99241.63
2022-09-03T03:21:38.051Z,99235.75
2022-09-03T03:26:41.267Z,99235.75
2022-09-03T03:31:45.693Z,99243.09
2022-09-03T03:36:48.666Z,99237.63
2022-09-03T03:41:52.516Z,99243.13
2022-09-03T03:46:56.852Z,99242.94
2022-09-03T03:51:59.799Z,99238.69
2022-09-03T03:57:03.072Z,99242.50
2022-09-03T04:02:07.442Z,99238.78
2022-09-03T04:07:10.999Z,99240.41
2022-09-03T04:12:13.958Z,99230.41
2022-09-03T04:17:21.054Z,99239.31
2022-09-03T04:22:29.833Z,99230.03
2022-09-03T04:27:33.172Z,99232.06
2022-09-03T04:32:56.189Z,99224.63
2022-09-03T04:37:59.305Z,99228.47
2022-09-03T04:43:02.403Z,99220.81
2022-09-03T04:48:10.477Z,99232.84
2022-09-03T04:53:13.524Z,99238.22
2022-09-03T04:58:16.627Z,99246.00
2022-09-03T05:03:22.072Z,99248.97
2022-09-03T05:08:26.527Z,99244.16
2022-09-03T05:13:29.667Z,99233.06
2022-09-03T05:18:35.818Z,99223.91
2022-09-03T05:23:40.881Z,99232.97
2022-09-03T05:28:45.219Z,99229.03
2022-09-03T05:33:51.298Z,99231.94
2022-09-03T05:38:55.245Z,99237.06
2022-09-03T05:43:59.867Z,99240.09
2022-09-03T05:49:06.414Z,99241.09
2022-09-03T05:54:09.991Z,99238.59
2022-09-03T05:59:13.871Z,99241.25
2022-09-03T06:04:18.309Z,99240.88
2022-09-03T06:09:23.838Z,99244.78
2022-09-03T06:14:26.881Z,99240.69
2022-09-03T06:19:31.286Z,99242.22
2022-09-03T06:24:34.568Z,99252.13
2022-09-03T06:29:38.952Z,99246.38
2022-09-03T06:34:43.594Z,99241.94
2022-09-03T06:39:46.648Z,99243.84
2022-09-03T06:44:51.381Z,99245.25
2022-09-03T06:49:55.811Z,99243.56
2022-09-03T06:54:58.827Z,99239.63
2022-09-03T07:00:02.651Z,99242.41
2022-09-03T07:05:07.718Z,99239.78
2022-09-03T07:10:14.064Z,99227.41
2022-09-03T07:15:17.112Z,99231.50
2022-09-03T07:20:22.354Z,99222.94
2022-09-03T07:25:27.332Z,99213.72
2022-09-03T07:30:30.303Z,99211.06
2022-09-03T07:35:37.600Z,99214.56
2022-09-03T07:40:40.593Z,99205.88
2022-09-03T07:45:46.521Z,99208.03
2022-09-03T07:50:51.463Z,99208.41
2022-09-03T07:55:54.449Z,99205.16
2022-09-03T08:00:58.320Z,99206.47
2022-09-03T08:06:04.379Z,99203.03
2022-09-03T08:11:10.056Z,99209.69
2022-09-03T08:16:14.161Z,99200.59
2022-09-03T08:21:20.208Z,99202.16
2022-09-03T08:26:23.955Z,99211.19
2022-09-03T08:31:28.264Z,99204.00
2022-09-03T08:36:33.938Z,99199.53
2022-09-03T08:41:50.360Z,99205.84
2022-09-03T08:46:59.972Z,99199.94
2022-09-03T08:52:07.556Z,99196.34
2022-09-03T08:57:11.084Z,99194.59
2022-09-03T09:02:26.349Z,99191.34
2022-09-03T09:07:38.863Z,99182.59
2022-09-03T09:12:51.668Z,99184.94
2022-09-03T09:18:09.861Z,99172.84
2022-09-03T09:23:21.217Z,99179.59
2022-09-03T09:28:26.863Z,99183.56
2022-09-03T09:33:32.234Z,99170.19
2022-09-03T09:38:40.890Z,99157.69
2022-09-03T09:43:45.479Z,99168.69
2022-09-03T09:48:52.578Z,99147.28
2022-09-03T09:54:05.116Z,99157.09
2022-09-03T09:59:10.180Z,99157.88
2022-09-03T10:04:14.938Z,99155.19
2022-09-03T10:09:21.026Z,99137.78
2022-09-03T10:14:35.132Z,99142.94
2022-09-03T10:20:05.167Z,99135.94
2022-09-03T10:25:11.109Z,99144.50
2022-09-03T10:30:16.106Z,99143.88
2022-09-03T10:35:28.529Z,99134.41
2022-09-03T10:40:39.225Z,99126.81
2022-09-03T10:45:53.250Z,99118.69
2022-09-03T10:51:00.349Z,99121.31
2022-09-03T10:56:09.521Z,99098.84
2022-09-03T11:01:22.425Z,99110.91
2022-09-03T11:06:29.545Z,99111.88
2022-09-03T11:11:39.185Z,99098.31
2022-09-03T11:16:49.229Z,99098.09
2022-09-03T11:21:53.240Z,99088.34
2022-09-03T11:27:07.032Z,99093.31
2022-09-03T11:32:19.381Z,99084.94
2022-09-03T11:37:24.846Z,99088.53
2022-09-03T11:42:36.907Z,99079.44
2022-09-03T11:47:42.220Z,99089.31
2022-09-03T11:52:45.220Z,99092.19
2022-09-03T11:57:49.742Z,99079.22
2022-09-03T12:02:59.118Z,99072.03
2022-09-03T12:08:28.358Z,99074.97
2022-09-03T12:13:47.865Z,99076.22
2022-09-03T12:18:53.205Z,99073.34
2022-09-03T12:23:58.423Z,99076.25
2022-09-03T12:29:03.016Z,99073.47
2022-09-03T12:34:17.244Z,99073.00
2022-09-03T12:40:04.701Z,99056.41
2022-09-03T12:44:48.653Z,99056.63
2022-09-03T12:49:53.472Z,99052.75
2022-09-03T12:55:00.820Z,99056.63
2022-09-03T13:00:09.223Z,99044.88
2022-09-03T13:05:18.131Z,99047.53
2022-09-03T13:10:28.229Z,99040.66
2022-09-03T13:15:32.670Z,99039.50
2022-09-03T13:20:44.888Z,99037.50
2022-09-03T13:26:01.639Z,99039.19
2022-09-03T13:31:26.974Z,99027.38
2022-09-03T13:36:35.392Z,99031.25
2022-09-03T13:41:45.001Z,99029.38
2022-09-03T13:46:56.521Z,99022.22
2022-09-03T13:52:04.034Z,99022.28
2022-09-03T13:57:18.311Z,99021.84
2022-09-03T14:02:34.506Z,99023.53
2022-09-03T14:07:52.500Z,99017.78
2022-09-03T14:13:07.230Z,99007.63
2022-09-03T14:18:20.058Z,99009.59
2022-09-03T14:23:34.167Z,99014.34
2022-09-03T14:28:38.939Z,99022.13
2022-09-03T14:33:57.902Z,99014.63
2022-09-03T14:39:18.723Z,99020.13
2022-09-03T14:44:49.733Z,99016.28
2022-09-03T14:50:06.148Z,99017.34
2022-09-03T14:55:21.112Z,99000.25
2022-09-03T15:00:34.791Z,99005.34
2022-09-03T15:05:54.976Z,99003.53
2022-09-03T15:11:16.650Z,99010.19
2022-09-03T15:16:42.935Z,99006.34
2022-09-03T15:22:04.155Z,99008.22
2022-09-03T15:27:20.750Z,99004.19
2022-09-03T15:32:39.328Z,99007.41
2022-09-03T15:37:49.057Z,99007.88
2022-09-03T15:42:56.635Z,99010.50
2022-09-03T15:48:11.035Z,99014.91
2022-09-03T15:53:25.534Z,99011.22
2022-09-03T15:58:34.637Z,99013.03
2022-09-03T16:03:56.134Z,99021.56
2022-09-03T16:09:03.305Z,99017.56
2022-09-03T16:14:12.023Z,99016.81
2022-09-03T16:19:19.629Z,99014.00
2022-09-03T16:24:27.180Z,99014.31
2022-09-03T16:29:32.055Z,99024.50
2022-09-03T16:34:49.011Z,99017.44
2022-09-03T16:40:03.209Z,99026.81
2022-09-03T16:45:17.707Z,99027.19
2022-09-03T16:50:31.874Z,99022.38
2022-09-03T16:55:57.167Z,99010.63
2022-09-03T17:01:13.349Z,99018.28
2022-09-03T17:06:50.459Z,99013.69
2022-09-03T17:12:05.251Z,99023.22
2022-09-03T17:17:19.927Z,99015.22
2022-09-03T17:22:39.845Z,99029.69
2022-09-03T17:27:51.127Z,99027.28
2022-09-03T17:33:25.601Z,99031.22
2022-09-03T17:38:45.624Z,99034.72
2022-09-03T17:43:59.840Z,99033.28
2022-09-03T17:49:03.955Z,99041.16
2022-09-03T17:54:13.433Z,99039.66
2022-09-03T17:59:26.771Z,99045.09
2022-09-03T18:04:46.484Z,99042.75
2022-09-03T18:09:58.895Z,99060.13
2022-09-03T18:15:10.865Z,99061.78
2022-09-03T18:20:33.515Z,99073.81
2022-09-03T18:25:56.607Z,99074.38
2022-09-03T18:31:18.617Z,99087.66
2022-09-03T18:36:39.574Z,99086.88
2022-09-03T18:42:12.914Z,99092.22
2022-09-03T18:48:09.095Z,99089.53
2022-09-03T18:53:34.935Z,99092.19
2022-09-03T18:59:01.301Z,99099.09
2022-09-03T19:04:33.910Z,99094.28
2022-09-03T19:10:04.489Z,99104.31
2022-09-03T19:15:31.544Z,99097.72
2022-09-03T19:20:55.979Z,99099.97
2022-09-03T19:26:23.779Z,99097.38
2022-09-03T19:31:59.781Z,99102.69
2022-09-03T19:37:27.229Z,99103.72
2022-09-03T19:43:01.661Z,99111.69
2022-09-03T19:48:32.083Z,99104.69
2022-09-03T19:53:54.883Z,99117.88
2022-09-03T19:59:19.545Z,99122.56
2022-09-03T20:04:46.417Z,99128.97
2022-09-03T20:10:10.188Z,99134.28
2022-09-03T20:15:13.367Z,99140.88
2022-09-03T20:20:24.931Z,99138.72
2022-09-03T20:25:46.114Z,99149.81
2022-09-03T20:30:57.627Z,99148.34
2022-09-03T20:36:10.489Z,99139.28
2022-09-03T20:41:22.799Z,99151.94
2022-09-03T20:46:45.510Z,99154.75
2022-09-03T20:51:55.423Z,99155.09
2022-09-03T20:57:26.051Z,99157.88
2022-09-03T21:02:43.590Z,99155.50
2022-09-03T21:07:57.368Z,99158.75
2022-09-03T21:13:11.570Z,99162.09
2022-09-03T21:18:23.470Z,99167.34
2022-09-03T21:23:34.662Z,99162.19
2022-09-03T21:28:41.530Z,99162.81
2022-09-03T21:33:48.980Z,99158.94
2022-09-03T21:39:07.184Z,99161.59
2022-09-03T21:44:17.498Z,99172.56
2022-09-03T21:49:25.656Z,99172.94
2022-09-03T21:54:30.125Z,99186.00
2022-09-03T21:59:58.300Z,99188.41
2022-09-03T22:05:03.634Z,99184.00
2022-09-03T22:10:14.090Z,99184.03
2022-09-03T22:15:25.348Z,99193.97
2022-09-03T22:20:29.022Z,99187.25
2022-09-03T22:25:41.900Z,99195.53
2022-09-03T22:30:54.226Z,99184.53
2022-09-03T22:36:13.112Z,99179.78
2022-09-03T22:41:31.012Z,99178.34
2022-09-03T22:46:47.914Z,99181.00
2022-09-03T22:52:01.728Z,99185.66
2022-09-03T22:57:07.703Z,99184.50
2022-09-03T23:02:16.601Z,99183.41
2022-09-03T23:07:25.547Z,99179.22
2022-09-03T23:12:36.319Z,99178.34
2022-09-03T23:17:46.105Z,99183.56
2022-09-03T23:22:54.534Z,99184.91
2022-09-03T23:28:02.655Z,99188.84
2022-09-03T23:33:08.572Z,99179.88
2022-09-03T23:38:21.141Z,99182.75
2022-09-03T23:43:48.244Z,99185.47
2022-09-03T23:49:08.895Z,99178.63
2022-09-03T23:54:20.143Z,99182.91
2022-09-03T23:59:35.035Z,99186.19
